sensor_id;sensor_type;location;lat;lon;timestamp;P1;durP1;ratioP1;P2;durP2;ratioP2
37645;SDS011;23489;49.600;6.138;2023-03-21T00:00:25;11.57;;;5.20;;
37645;SDS011;23489;49.600;6.138;2023-03-21T00:02:50;8.15;;;5.50;;
37645;SDS011;23489;49.600;6.138;2023-03-21T00:05:16;8.98;;;4.75;;
37645;SDS011;23489;49.600;6.138;2023-03-21T00:07:44;5.97;;;4.30;;
37645;SDS011;23489;49.600;6.138;2023-03-21T00:10:10;8.48;;;4.82;;
37645;SDS011;23489;49.600;6.138;2023-03-21T00:12:36;10.52;;;5.00;;
37645;SDS011;23489;49.600;6.138;2023-03-21T00:15:03;8.45;;;4.05;;
37645;SDS011;23489;49.600;6.138;2023-03-21T00:17:30;7.75;;;5.07;;
37645;SDS011;23489;49.600;6.138;2023-03-21T00:19:57;9.07;;;4.70;;
37645;SDS011;23489;49.600;6.138;2023-03-21T00:22:29;9.48;;;5.28;;
37645;SDS011;23489;49.600;6.138;2023-03-21T00:24:56;11.43;;;5.25;;
37645;SDS011;23489;49.600;6.138;2023-03-21T00:27:22;11.10;;;5.30;;
37645;SDS011;23489;49.600;6.138;2023-03-21T00:29:48;11.95;;;4.82;;
37645;SDS011;23489;49.600;6.138;2023-03-21T00:32:16;11.20;;;5.72;;
37645;SDS011;23489;49.600;6.138;2023-03-21T00:34:46;8.55;;;5.07;;
37645;SDS011;23489;49.600;6.138;2023-03-21T00:37:14;9.98;;;5.35;;
37645;SDS011;23489;49.600;6.138;2023-03-21T00:39:42;7.93;;;5.18;;
37645;SDS011;23489;49.600;6.138;2023-03-21T00:42:12;12.13;;;5.18;;
37645;SDS011;23489;49.600;6.138;2023-03-21T00:44:38;10.93;;;5.53;;
37645;SDS011;23489;49.600;6.138;2023-03-21T00:47:04;11.32;;;5.97;;
37645;SDS011;23489;49.600;6.138;2023-03-21T00:49:32;9.07;;;4.93;;
37645;SDS011;23489;49.600;6.138;2023-03-21T00:52:00;11.02;;;5.55;;
37645;SDS011;23489;49.600;6.138;2023-03-21T00:54:30;15.20;;;5.78;;
37645;SDS011;23489;49.600;6.138;2023-03-21T00:56:55;13.43;;;5.88;;
37645;SDS011;23489;49.600;6.138;2023-03-21T00:59:21;7.72;;;5.53;;
37645;SDS011;23489;49.600;6.138;2023-03-21T01:01:46;10.48;;;5.45;;
37645;SDS011;23489;49.600;6.138;2023-03-21T01:04:12;10.80;;;5.88;;
37645;SDS011;23489;49.600;6.138;2023-03-21T01:06:41;12.15;;;5.68;;
37645;SDS011;23489;49.600;6.138;2023-03-21T01:09:12;12.48;;;5.60;;
37645;SDS011;23489;49.600;6.138;2023-03-21T01:11:40;10.95;;;5.55;;
37645;SDS011;23489;49.600;6.138;2023-03-21T01:14:06;9.43;;;5.93;;
37645;SDS011;23489;49.600;6.138;2023-03-21T01:16:33;10.90;;;5.72;;
37645;SDS011;23489;49.600;6.138;2023-03-21T01:18:59;11.73;;;6.00;;
37645;SDS011;23489;49.600;6.138;2023-03-21T01:21:25;9.35;;;5.82;;
37645;SDS011;23489;49.600;6.138;2023-03-21T01:23:52;8.55;;;6.25;;
37645;SDS011;23489;49.600;6.138;2023-03-21T01:26:18;7.63;;;5.30;;
37645;SDS011;23489;49.600;6.138;2023-03-21T01:28:44;8.55;;;5.70;;
37645;SDS011;23489;49.600;6.138;2023-03-21T01:31:14;11.50;;;6.00;;
37645;SDS011;23489;49.600;6.138;2023-03-21T01:33:41;10.15;;;5.78;;
37645;SDS011;23489;49.600;6.138;2023-03-21T01:36:08;8.30;;;5.80;;
37645;SDS011;23489;49.600;6.138;2023-03-21T01:38:41;12.05;;;5.97;;
37645;SDS011;23489;49.600;6.138;2023-03-21T01:41:10;12.90;;;6.82;;
37645;SDS011;23489;49.600;6.138;2023-03-21T01:43:48;10.05;;;6.10;;
37645;SDS011;23489;49.600;6.138;2023-03-21T01:49:33;13.60;;;6.30;;
37645;SDS011;23489;49.600;6.138;2023-03-21T01:52:09;13.75;;;6.13;;
37645;SDS011;23489;49.600;6.138;2023-03-21T01:54:38;11.35;;;6.10;;
37645;SDS011;23489;49.600;6.138;2023-03-21T01:57:08;12.75;;;6.47;;
37645;SDS011;23489;49.600;6.138;2023-03-21T01:59:47;12.18;;;6.60;;
37645;SDS011;23489;49.600;6.138;2023-03-21T02:02:35;11.25;;;6.03;;
37645;SDS011;23489;49.600;6.138;2023-03-21T02:05:23;11.60;;;6.80;;
37645;SDS011;23489;49.600;6.138;2023-03-21T02:08:04;11.55;;;6.78;;
37645;SDS011;23489;49.600;6.138;2023-03-21T02:10:30;13.95;;;6.72;;
37645;SDS011;23489;49.600;6.138;2023-03-21T02:12:59;11.63;;;6.50;;
37645;SDS011;23489;49.600;6.138;2023-03-21T02:15:38;12.50;;;6.38;;
37645;SDS011;23489;49.600;6.138;2023-03-21T02:18:25;11.88;;;6.15;;
37645;SDS011;23489;49.600;6.138;2023-03-21T02:24:04;14.80;;;7.00;;
37645;SDS011;23489;49.600;6.138;2023-03-21T02:38:23;13.13;;;6.80;;
37645;SDS011;23489;49.600;6.138;2023-03-21T02:43:54;18.77;;;7.90;;
37645;SDS011;23489;49.600;6.138;2023-03-21T02:49:06;10.00;;;6.95;;
37645;SDS011;23489;49.600;6.138;2023-03-21T02:51:41;12.45;;;7.00;;
37645;SDS011;23489;49.600;6.138;2023-03-21T02:54:13;12.85;;;7.70;;
37645;SDS011;23489;49.600;6.138;2023-03-21T02:56:43;11.82;;;6.78;;
37645;SDS011;23489;49.600;6.138;2023-03-21T02:59:11;13.75;;;6.57;;
37645;SDS011;23489;49.600;6.138;2023-03-21T03:01:39;9.98;;;6.50;;
37645;SDS011;23489;49.600;6.138;2023-03-21T03:04:18;13.00;;;7.53;;
37645;SDS011;23489;49.600;6.138;2023-03-21T03:24:02;9.65;;;6.25;;
37645;SDS011;23489;49.600;6.138;2023-03-21T03:26:57;12.90;;;7.15;;
37645;SDS011;23489;49.600;6.138;2023-03-21T03:29:29;10.75;;;6.57;;
37645;SDS011;23489;49.600;6.138;2023-03-21T03:31:59;10.82;;;6.43;;
37645;SDS011;23489;49.600;6.138;2023-03-21T03:34:47;11.85;;;6.47;;
37645;SDS011;23489;49.600;6.138;2023-03-21T03:37:30;10.52;;;6.60;;
37645;SDS011;23489;49.600;6.138;2023-03-21T03:40:07;11.57;;;6.30;;
37645;SDS011;23489;49.600;6.138;2023-03-21T03:42:46;13.95;;;7.10;;
37645;SDS011;23489;49.600;6.138;2023-03-21T03:45:34;13.25;;;6.68;;
37645;SDS011;23489;49.600;6.138;2023-03-21T03:50:39;9.57;;;6.35;;
37645;SDS011;23489;49.600;6.138;2023-03-21T03:53:22;13.27;;;7.05;;
37645;SDS011;23489;49.600;6.138;2023-03-21T03:55:54;12.77;;;7.20;;
37645;SDS011;23489;49.600;6.138;2023-03-21T03:58:22;12.63;;;7.30;;
37645;SDS011;23489;49.600;6.138;2023-03-21T04:00:50;13.50;;;7.13;;
37645;SDS011;23489;49.600;6.138;2023-03-21T04:03:19;11.52;;;6.97;;
37645;SDS011;23489;49.600;6.138;2023-03-21T04:05:46;11.25;;;7.18;;
37645;SDS011;23489;49.600;6.138;2023-03-21T04:08:13;9.93;;;7.20;;
37645;SDS011;23489;49.600;6.138;2023-03-21T04:10:42;15.13;;;7.60;;
37645;SDS011;23489;49.600;6.138;2023-03-21T04:13:09;9.95;;;7.53;;
37645;SDS011;23489;49.600;6.138;2023-03-21T04:15:43;14.43;;;7.43;;
37645;SDS011;23489;49.600;6.138;2023-03-21T04:18:13;13.40;;;7.47;;
37645;SDS011;23489;49.600;6.138;2023-03-21T04:20:39;12.70;;;7.32;;
37645;SDS011;23489;49.600;6.138;2023-03-21T04:23:06;13.65;;;7.45;;
37645;SDS011;23489;49.600;6.138;2023-03-21T04:25:35;12.10;;;6.80;;
37645;SDS011;23489;49.600;6.138;2023-03-21T04:28:03;12.55;;;7.47;;
37645;SDS011;23489;49.600;6.138;2023-03-21T04:30:37;11.18;;;7.47;;
37645;SDS011;23489;49.600;6.138;2023-03-21T04:33:09;14.50;;;7.25;;
37645;SDS011;23489;49.600;6.138;2023-03-21T04:35:34;12.70;;;7.50;;
37645;SDS011;23489;49.600;6.138;2023-03-21T04:38:02;10.93;;;6.93;;
37645;SDS011;23489;49.600;6.138;2023-03-21T04:40:27;9.85;;;7.18;;
37645;SDS011;23489;49.600;6.138;2023-03-21T04:42:54;12.77;;;7.32;;
37645;SDS011;23489;49.600;6.138;2023-03-21T04:45:19;12.85;;;7.43;;
37645;SDS011;23489;49.600;6.138;2023-03-21T04:47:45;11.50;;;7.10;;
37645;SDS011;23489;49.600;6.138;2023-03-21T04:50:11;12.52;;;6.95;;
37645;SDS011;23489;49.600;6.138;2023-03-21T04:52:38;13.77;;;6.85;;
37645;SDS011;23489;49.600;6.138;2023-03-21T04:55:04;10.32;;;7.10;;
37645;SDS011;23489;49.600;6.138;2023-03-21T04:57:34;9.48;;;7.25;;
37645;SDS011;23489;49.600;6.138;2023-03-21T05:00:04;11.18;;;6.75;;
37645;SDS011;23489;49.600;6.138;2023-03-21T05:02:40;14.15;;;7.07;;
37645;SDS011;23489;49.600;6.138;2023-03-21T05:05:06;13.35;;;7.20;;
37645;SDS011;23489;49.600;6.138;2023-03-21T05:07:36;13.63;;;7.00;;
37645;SDS011;23489;49.600;6.138;2023-03-21T05:10:03;9.15;;;6.72;;
37645;SDS011;23489;49.600;6.138;2023-03-21T05:12:30;11.85;;;6.60;;
37645;SDS011;23489;49.600;6.138;2023-03-21T05:14:55;13.35;;;7.65;;
37645;SDS011;23489;49.600;6.138;2023-03-21T05:17:21;10.57;;;7.00;;
37645;SDS011;23489;49.600;6.138;2023-03-21T05:19:50;15.48;;;7.13;;
37645;SDS011;23489;49.600;6.138;2023-03-21T05:22:17;10.25;;;6.32;;
37645;SDS011;23489;49.600;6.138;2023-03-21T05:24:44;10.35;;;6.80;;
37645;SDS011;23489;49.600;6.138;2023-03-21T05:27:20;11.35;;;6.80;;
37645;SDS011;23489;49.600;6.138;2023-03-21T05:29:59;11.65;;;7.00;;
37645;SDS011;23489;49.600;6.138;2023-03-21T05:32:32;13.18;;;7.00;;
37645;SDS011;23489;49.600;6.138;2023-03-21T05:34:58;9.35;;;6.05;;
37645;SDS011;23489;49.600;6.138;2023-03-21T05:37:25;9.80;;;6.95;;
37645;SDS011;23489;49.600;6.138;2023-03-21T05:39:51;10.05;;;6.70;;
37645;SDS011;23489;49.600;6.138;2023-03-21T05:42:24;13.95;;;7.07;;
37645;SDS011;23489;49.600;6.138;2023-03-21T05:44:50;13.40;;;6.82;;
37645;SDS011;23489;49.600;6.138;2023-03-21T05:47:21;10.88;;;6.30;;
37645;SDS011;23489;49.600;6.138;2023-03-21T05:49:50;11.40;;;7.55;;
37645;SDS011;23489;49.600;6.138;2023-03-21T05:52:16;11.10;;;6.63;;
37645;SDS011;23489;49.600;6.138;2023-03-21T05:54:43;10.18;;;6.72;;
37645;SDS011;23489;49.600;6.138;2023-03-21T05:57:09;13.23;;;6.38;;
37645;SDS011;23489;49.600;6.138;2023-03-21T05:59:54;11.30;;;6.07;;
37645;SDS011;23489;49.600;6.138;2023-03-21T06:02:19;11.75;;;6.40;;
37645;SDS011;23489;49.600;6.138;2023-03-21T06:04:46;10.40;;;7.20;;
37645;SDS011;23489;49.600;6.138;2023-03-21T06:07:12;8.93;;;6.40;;
37645;SDS011;23489;49.600;6.138;2023-03-21T06:09:39;11.43;;;6.50;;
37645;SDS011;23489;49.600;6.138;2023-03-21T06:12:06;14.82;;;7.13;;
37645;SDS011;23489;49.600;6.138;2023-03-21T06:14:42;12.07;;;6.95;;
37645;SDS011;23489;49.600;6.138;2023-03-21T06:17:19;8.73;;;6.07;;
37645;SDS011;23489;49.600;6.138;2023-03-21T06:19:50;11.98;;;6.57;;
37645;SDS011;23489;49.600;6.138;2023-03-21T06:22:26;12.98;;;7.30;;
37645;SDS011;23489;49.600;6.138;2023-03-21T06:24:52;11.77;;;6.85;;
37645;SDS011;23489;49.600;6.138;2023-03-21T06:27:19;12.10;;;6.93;;
37645;SDS011;23489;49.600;6.138;2023-03-21T06:29:51;10.07;;;6.78;;
37645;SDS011;23489;49.600;6.138;2023-03-21T06:32:17;14.13;;;6.70;;
37645;SDS011;23489;49.600;6.138;2023-03-21T06:34:43;10.23;;;6.25;;
37645;SDS011;23489;49.600;6.138;2023-03-21T06:37:12;15.00;;;6.70;;
37645;SDS011;23489;49.600;6.138;2023-03-21T06:39:39;9.23;;;6.43;;
37645;SDS011;23489;49.600;6.138;2023-03-21T06:42:06;11.15;;;6.72;;
37645;SDS011;23489;49.600;6.138;2023-03-21T06:44:32;14.10;;;6.63;;
37645;SDS011;23489;49.600;6.138;2023-03-21T06:47:03;17.40;;;7.15;;
37645;SDS011;23489;49.600;6.138;2023-03-21T06:49:28;11.23;;;6.50;;
37645;SDS011;23489;49.600;6.138;2023-03-21T06:51:58;10.02;;;7.03;;
37645;SDS011;23489;49.600;6.138;2023-03-21T06:54:23;10.30;;;6.65;;
37645;SDS011;23489;49.600;6.138;2023-03-21T06:56:56;10.38;;;5.78;;
37645;SDS011;23489;49.600;6.138;2023-03-21T06:59:26;10.73;;;5.93;;
37645;SDS011;23489;49.600;6.138;2023-03-21T07:02:01;12.18;;;6.53;;
37645;SDS011;23489;49.600;6.138;2023-03-21T07:04:28;11.35;;;6.47;;
37645;SDS011;23489;49.600;6.138;2023-03-21T07:06:56;11.45;;;7.18;;
37645;SDS011;23489;49.600;6.138;2023-03-21T07:09:21;11.85;;;6.63;;
37645;SDS011;23489;49.600;6.138;2023-03-21T07:11:53;11.90;;;6.63;;
37645;SDS011;23489;49.600;6.138;2023-03-21T07:14:22;9.75;;;6.30;;
37645;SDS011;23489;49.600;6.138;2023-03-21T07:16:48;9.85;;;6.13;;
37645;SDS011;23489;49.600;6.138;2023-03-21T07:19:14;10.82;;;6.15;;
37645;SDS011;23489;49.600;6.138;2023-03-21T07:21:41;12.52;;;5.85;;
37645;SDS011;23489;49.600;6.138;2023-03-21T07:24:06;9.57;;;6.38;;
37645;SDS011;23489;49.600;6.138;2023-03-21T07:26:33;10.30;;;6.32;;
37645;SDS011;23489;49.600;6.138;2023-03-21T07:29:01;13.30;;;6.40;;
37645;SDS011;23489;49.600;6.138;2023-03-21T07:31:26;8.32;;;6.05;;
37645;SDS011;23489;49.600;6.138;2023-03-21T07:33:53;13.50;;;7.00;;
37645;SDS011;23489;49.600;6.138;2023-03-21T07:36:20;10.80;;;5.80;;
37645;SDS011;23489;49.600;6.138;2023-03-21T07:38:46;12.98;;;6.25;;
37645;SDS011;23489;49.600;6.138;2023-03-21T07:41:13;13.40;;;6.43;;
37645;SDS011;23489;49.600;6.138;2023-03-21T07:43:39;10.80;;;6.45;;
37645;SDS011;23489;49.600;6.138;2023-03-21T07:46:08;12.07;;;6.35;;
37645;SDS011;23489;49.600;6.138;2023-03-21T07:48:33;10.68;;;6.40;;
37645;SDS011;23489;49.600;6.138;2023-03-21T07:50:59;9.77;;;6.30;;
37645;SDS011;23489;49.600;6.138;2023-03-21T07:53:26;10.25;;;6.65;;
37645;SDS011;23489;49.600;6.138;2023-03-21T07:55:52;9.65;;;6.95;;
37645;SDS011;23489;49.600;6.138;2023-03-21T07:58:21;10.60;;;6.05;;
37645;SDS011;23489;49.600;6.138;2023-03-21T08:00:47;9.82;;;6.28;;
37645;SDS011;23489;49.600;6.138;2023-03-21T08:03:13;12.20;;;7.50;;
37645;SDS011;23489;49.600;6.138;2023-03-21T08:05:39;11.30;;;6.65;;
37645;SDS011;23489;49.600;6.138;2023-03-21T08:08:05;9.68;;;6.68;;
37645;SDS011;23489;49.600;6.138;2023-03-21T08:10:31;12.43;;;6.43;;
37645;SDS011;23489;49.600;6.138;2023-03-21T08:12:57;11.05;;;6.75;;
37645;SDS011;23489;49.600;6.138;2023-03-21T08:15:23;8.75;;;6.15;;
37645;SDS011;23489;49.600;6.138;2023-03-21T08:17:49;11.38;;;6.05;;
37645;SDS011;23489;49.600;6.138;2023-03-21T08:20:16;10.30;;;5.95;;
37645;SDS011;23489;49.600;6.138;2023-03-21T08:22:45;9.35;;;5.68;;
37645;SDS011;23489;49.600;6.138;2023-03-21T08:25:11;11.23;;;6.18;;
37645;SDS011;23489;49.600;6.138;2023-03-21T08:27:38;7.47;;;5.47;;
37645;SDS011;23489;49.600;6.138;2023-03-21T08:30:05;11.68;;;5.57;;
37645;SDS011;23489;49.600;6.138;2023-03-21T08:32:32;10.93;;;6.10;;
37645;SDS011;23489;49.600;6.138;2023-03-21T08:35:01;10.38;;;6.25;;
37645;SDS011;23489;49.600;6.138;2023-03-21T08:37:28;11.18;;;6.63;;
37645;SDS011;23489;49.600;6.138;2023-03-21T08:39:54;13.98;;;6.38;;
37645;SDS011;23489;49.600;6.138;2023-03-21T08:42:20;7.88;;;5.78;;
37645;SDS011;23489;49.600;6.138;2023-03-21T08:44:46;11.93;;;6.05;;
37645;SDS011;23489;49.600;6.138;2023-03-21T08:47:13;8.45;;;6.13;;
37645;SDS011;23489;49.600;6.138;2023-03-21T08:49:38;10.02;;;6.22;;
37645;SDS011;23489;49.600;6.138;2023-03-21T08:52:05;9.63;;;6.25;;
37645;SDS011;23489;49.600;6.138;2023-03-21T08:54:31;9.18;;;5.95;;
37645;SDS011;23489;49.600;6.138;2023-03-21T08:56:57;9.15;;;6.07;;
37645;SDS011;23489;49.600;6.138;2023-03-21T08:59:22;9.00;;;5.60;;
37645;SDS011;23489;49.600;6.138;2023-03-21T09:01:48;9.75;;;6.00;;
37645;SDS011;23489;49.600;6.138;2023-03-21T09:04:14;7.95;;;5.40;;
37645;SDS011;23489;49.600;6.138;2023-03-21T09:06:43;8.70;;;5.38;;
37645;SDS011;23489;49.600;6.138;2023-03-21T09:09:10;8.82;;;5.88;;
37645;SDS011;23489;49.600;6.138;2023-03-21T09:11:36;6.65;;;5.28;;
37645;SDS011;23489;49.600;6.138;2023-03-21T09:14:02;9.25;;;6.07;;
37645;SDS011;23489;49.600;6.138;2023-03-21T09:16:28;10.93;;;6.13;;
37645;SDS011;23489;49.600;6.138;2023-03-21T09:18:53;11.48;;;6.20;;
37645;SDS011;23489;49.600;6.138;2023-03-21T09:21:23;12.80;;;6.78;;
37645;SDS011;23489;49.600;6.138;2023-03-21T09:23:50;9.02;;;6.72;;
37645;SDS011;23489;49.600;6.138;2023-03-21T09:26:19;12.90;;;6.75;;
37645;SDS011;23489;49.600;6.138;2023-03-21T09:28:45;9.05;;;6.13;;
37645;SDS011;23489;49.600;6.138;2023-03-21T09:31:11;11.05;;;5.95;;
37645;SDS011;23489;49.600;6.138;2023-03-21T09:33:40;9.95;;;6.03;;
37645;SDS011;23489;49.600;6.138;2023-03-21T09:36:07;10.00;;;6.45;;
37645;SDS011;23489;49.600;6.138;2023-03-21T09:38:38;11.73;;;6.50;;
37645;SDS011;23489;49.600;6.138;2023-03-21T09:44:03;12.20;;;6.75;;
37645;SDS011;23489;49.600;6.138;2023-03-21T09:46:44;10.82;;;6.30;;
37645;SDS011;23489;49.600;6.138;2023-03-21T09:49:21;10.13;;;6.22;;
37645;SDS011;23489;49.600;6.138;2023-03-21T09:51:49;9.45;;;6.22;;
37645;SDS011;23489;49.600;6.138;2023-03-21T09:56:47;10.30;;;6.82;;
37645;SDS011;23489;49.600;6.138;2023-03-21T09:59:20;7.93;;;5.68;;
37645;SDS011;23489;49.600;6.138;2023-03-21T10:01:52;10.73;;;6.47;;
37645;SDS011;23489;49.600;6.138;2023-03-21T10:04:19;9.40;;;6.32;;
37645;SDS011;23489;49.600;6.138;2023-03-21T10:06:50;9.75;;;6.35;;
37645;SDS011;23489;49.600;6.138;2023-03-21T10:09:21;11.52;;;6.35;;
37645;SDS011;23489;49.600;6.138;2023-03-21T10:11:56;10.55;;;6.53;;
37645;SDS011;23489;49.600;6.138;2023-03-21T10:17:06;11.65;;;6.85;;
37645;SDS011;23489;49.600;6.138;2023-03-21T10:19:35;12.70;;;7.00;;
37645;SDS011;23489;49.600;6.138;2023-03-21T10:22:01;9.43;;;6.60;;
37645;SDS011;23489;49.600;6.138;2023-03-21T10:24:27;12.15;;;6.90;;
37645;SDS011;23489;49.600;6.138;2023-03-21T10:26:55;8.48;;;6.25;;
37645;SDS011;23489;49.600;6.138;2023-03-21T10:29:23;10.65;;;7.00;;
37645;SDS011;23489;49.600;6.138;2023-03-21T10:32:11;10.48;;;6.55;;
37645;SDS011;23489;49.600;6.138;2023-03-21T10:34:41;8.65;;;5.95;;
37645;SDS011;23489;49.600;6.138;2023-03-21T10:37:10;9.25;;;6.20;;
37645;SDS011;23489;49.600;6.138;2023-03-21T10:39:38;8.27;;;6.20;;
37645;SDS011;23489;49.600;6.138;2023-03-21T10:42:11;9.45;;;6.72;;
37645;SDS011;23489;49.600;6.138;2023-03-21T10:44:48;10.45;;;6.55;;
37645;SDS011;23489;49.600;6.138;2023-03-21T10:47:29;12.45;;;6.68;;
37645;SDS011;23489;49.600;6.138;2023-03-21T10:50:04;8.45;;;5.75;;
37645;SDS011;23489;49.600;6.138;2023-03-21T10:52:32;12.48;;;7.63;;
37645;SDS011;23489;49.600;6.138;2023-03-21T10:55:06;8.63;;;6.28;;
37645;SDS011;23489;49.600;6.138;2023-03-21T10:58:01;8.95;;;5.90;;
37645;SDS011;23489;49.600;6.138;2023-03-21T11:00:39;11.70;;;7.13;;
37645;SDS011;23489;49.600;6.138;2023-03-21T11:03:18;10.43;;;7.10;;
37645;SDS011;23489;49.600;6.138;2023-03-21T11:05:47;9.60;;;7.20;;
37645;SDS011;23489;49.600;6.138;2023-03-21T11:08:17;10.43;;;6.35;;
37645;SDS011;23489;49.600;6.138;2023-03-21T11:13:19;10.60;;;6.78;;
37645;SDS011;23489;49.600;6.138;2023-03-21T11:15:54;9.90;;;6.20;;
37645;SDS011;23489;49.600;6.138;2023-03-21T11:18:29;11.15;;;6.47;;
37645;SDS011;23489;49.600;6.138;2023-03-21T11:21:05;9.18;;;6.30;;
37645;SDS011;23489;49.600;6.138;2023-03-21T11:23:34;9.27;;;6.25;;
37645;SDS011;23489;49.600;6.138;2023-03-21T11:26:08;8.75;;;6.53;;
37645;SDS011;23489;49.600;6.138;2023-03-21T11:28:41;8.55;;;6.18;;
37645;SDS011;23489;49.600;6.138;2023-03-21T11:31:08;9.63;;;6.25;;
37645;SDS011;23489;49.600;6.138;2023-03-21T11:33:39;10.07;;;5.93;;
37645;SDS011;23489;49.600;6.138;2023-03-21T11:38:51;10.98;;;6.70;;
37645;SDS011;23489;49.600;6.138;2023-03-21T11:41:24;8.90;;;6.10;;
37645;SDS011;23489;49.600;6.138;2023-03-21T11:43:54;11.82;;;6.55;;
37645;SDS011;23489;49.600;6.138;2023-03-21T11:46:24;9.07;;;6.40;;
37645;SDS011;23489;49.600;6.138;2023-03-21T11:48:51;8.23;;;6.30;;
37645;SDS011;23489;49.600;6.138;2023-03-21T11:51:21;12.95;;;7.20;;
37645;SDS011;23489;49.600;6.138;2023-03-21T11:54:10;12.25;;;6.90;;
37645;SDS011;23489;49.600;6.138;2023-03-21T11:56:46;10.07;;;6.95;;
37645;SDS011;23489;49.600;6.138;2023-03-21T12:05:04;7.93;;;6.10;;
37645;SDS011;23489;49.600;6.138;2023-03-21T12:07:49;11.68;;;7.05;;
37645;SDS011;23489;49.600;6.138;2023-03-21T12:10:42;8.98;;;6.60;;
37645;SDS011;23489;49.600;6.138;2023-03-21T12:16:01;11.02;;;8.02;;
37645;SDS011;23489;49.600;6.138;2023-03-21T12:21:33;11.68;;;8.02;;
37645;SDS011;23489;49.600;6.138;2023-03-21T12:29:46;9.77;;;7.18;;
37645;SDS011;23489;49.600;6.138;2023-03-21T12:35:27;9.23;;;6.72;;
37645;SDS011;23489;49.600;6.138;2023-03-21T12:46:54;11.18;;;6.78;;
37645;SDS011;23489;49.600;6.138;2023-03-21T12:48:56;11.45;;;7.28;;
37645;SDS011;23489;49.600;6.138;2023-03-21T12:51:27;11.57;;;7.25;;
37645;SDS011;23489;49.600;6.138;2023-03-21T12:54:01;14.18;;;7.93;;
37645;SDS011;23489;49.600;6.138;2023-03-21T12:59:38;10.55;;;7.50;;
37645;SDS011;23489;49.600;6.138;2023-03-21T13:04:55;14.60;;;7.53;;
37645;SDS011;23489;49.600;6.138;2023-03-21T13:07:40;9.82;;;7.53;;
37645;SDS011;23489;49.600;6.138;2023-03-21T13:12:44;12.15;;;6.47;;
37645;SDS011;23489;49.600;6.138;2023-03-21T13:15:27;13.80;;;8.00;;
37645;SDS011;23489;49.600;6.138;2023-03-21T13:17:56;9.60;;;7.07;;
37645;SDS011;23489;49.600;6.138;2023-03-21T13:20:41;12.75;;;7.32;;
37645;SDS011;23489;49.600;6.138;2023-03-21T13:23:11;10.45;;;7.22;;
37645;SDS011;23489;49.600;6.138;2023-03-21T13:25:41;13.18;;;6.90;;
37645;SDS011;23489;49.600;6.138;2023-03-21T13:30:53;10.73;;;6.93;;
37645;SDS011;23489;49.600;6.138;2023-03-21T13:33:39;10.48;;;7.43;;
37645;SDS011;23489;49.600;6.138;2023-03-21T13:36:12;16.58;;;7.22;;
37645;SDS011;23489;49.600;6.138;2023-03-21T13:38:45;10.73;;;6.60;;
37645;SDS011;23489;49.600;6.138;2023-03-21T13:41:18;11.15;;;6.13;;
37645;SDS011;23489;49.600;6.138;2023-03-21T13:59:11;5.32;;;3.88;;
37645;SDS011;23489;49.600;6.138;2023-03-21T14:04:28;6.47;;;3.22;;
37645;SDS011;23489;49.600;6.138;2023-03-21T14:06:56;6.65;;;3.70;;
37645;SDS011;23489;49.600;6.138;2023-03-21T14:09:35;5.43;;;3.13;;
37645;SDS011;23489;49.600;6.138;2023-03-21T14:12:06;5.70;;;3.72;;
37645;SDS011;23489;49.600;6.138;2023-03-21T14:14:39;5.88;;;3.72;;
37645;SDS011;23489;49.600;6.138;2023-03-21T14:17:11;9.77;;;3.95;;
37645;SDS011;23489;49.600;6.138;2023-03-21T14:19:51;7.35;;;3.47;;
37645;SDS011;23489;49.600;6.138;2023-03-21T14:22:18;4.88;;;3.55;;
37645;SDS011;23489;49.600;6.138;2023-03-21T14:24:57;5.90;;;3.42;;
37645;SDS011;23489;49.600;6.138;2023-03-21T14:27:25;7.30;;;3.72;;
37645;SDS011;23489;49.600;6.138;2023-03-21T14:29:54;4.18;;;3.55;;
37645;SDS011;23489;49.600;6.138;2023-03-21T14:32:22;6.82;;;3.83;;
37645;SDS011;23489;49.600;6.138;2023-03-21T14:34:50;8.70;;;3.80;;
37645;SDS011;23489;49.600;6.138;2023-03-21T14:37:28;6.78;;;3.60;;
37645;SDS011;23489;49.600;6.138;2023-03-21T14:40:04;6.30;;;3.53;;
37645;SDS011;23489;49.600;6.138;2023-03-21T14:42:44;6.25;;;3.92;;
37645;SDS011;23489;49.600;6.138;2023-03-21T14:45:16;5.95;;;3.40;;
37645;SDS011;23489;49.600;6.138;2023-03-21T14:48:03;9.98;;;4.10;;
37645;SDS011;23489;49.600;6.138;2023-03-21T14:50:44;5.13;;;3.28;;
37645;SDS011;23489;49.600;6.138;2023-03-21T14:53:14;7.93;;;3.58;;
37645;SDS011;23489;49.600;6.138;2023-03-21T14:55:45;10.02;;;3.65;;
37645;SDS011;23489;49.600;6.138;2023-03-21T14:58:14;6.43;;;3.92;;
37645;SDS011;23489;49.600;6.138;2023-03-21T15:00:43;6.55;;;3.83;;
37645;SDS011;23489;49.600;6.138;2023-03-21T15:03:13;5.25;;;3.92;;
37645;SDS011;23489;49.600;6.138;2023-03-21T15:05:41;7.70;;;4.68;;
37645;SDS011;23489;49.600;6.138;2023-03-21T15:10:35;6.45;;;4.70;;
37645;SDS011;23489;49.600;6.138;2023-03-21T15:13:13;5.85;;;4.55;;
37645;SDS011;23489;49.600;6.138;2023-03-21T15:15:42;9.15;;;3.72;;
37645;SDS011;23489;49.600;6.138;2023-03-21T15:18:08;5.90;;;3.38;;
37645;SDS011;23489;49.600;6.138;2023-03-21T15:20:38;7.10;;;3.85;;
37645;SDS011;23489;49.600;6.138;2023-03-21T15:23:08;8.98;;;3.72;;
37645;SDS011;23489;49.600;6.138;2023-03-21T15:25:40;5.50;;;3.85;;
37645;SDS011;23489;49.600;6.138;2023-03-21T15:28:06;5.68;;;3.60;;
37645;SDS011;23489;49.600;6.138;2023-03-21T15:30:32;4.85;;;3.83;;
37645;SDS011;23489;49.600;6.138;2023-03-21T15:33:04;10.85;;;4.30;;
37645;SDS011;23489;49.600;6.138;2023-03-21T15:38:02;6.22;;;4.00;;
37645;SDS011;23489;49.600;6.138;2023-03-21T15:40:30;7.75;;;4.63;;
37645;SDS011;23489;49.600;6.138;2023-03-21T15:43:03;8.65;;;5.60;;
37645;SDS011;23489;49.600;6.138;2023-03-21T15:45:47;10.65;;;3.88;;
37645;SDS011;23489;49.600;6.138;2023-03-21T15:48:14;7.25;;;3.72;;
37645;SDS011;23489;49.600;6.138;2023-03-21T15:50:41;4.15;;;3.03;;
37645;SDS011;23489;49.600;6.138;2023-03-21T15:53:14;9.60;;;4.00;;
37645;SDS011;23489;49.600;6.138;2023-03-21T15:55:48;6.78;;;4.38;;
37645;SDS011;23489;49.600;6.138;2023-03-21T15:58:17;6.55;;;3.30;;
37645;SDS011;23489;49.600;6.138;2023-03-21T16:00:49;4.90;;;2.92;;
37645;SDS011;23489;49.600;6.138;2023-03-21T16:03:21;5.13;;;2.95;;
37645;SDS011;23489;49.600;6.138;2023-03-21T16:06:05;3.83;;;3.05;;
37645;SDS011;23489;49.600;6.138;2023-03-21T16:13:50;6.53;;;3.50;;
37645;SDS011;23489;49.600;6.138;2023-03-21T16:18:47;5.68;;;3.20;;
37645;SDS011;23489;49.600;6.138;2023-03-21T16:21:14;8.68;;;3.28;;
37645;SDS011;23489;49.600;6.138;2023-03-21T16:23:42;6.72;;;3.30;;
37645;SDS011;23489;49.600;6.138;2023-03-21T16:26:18;7.18;;;4.07;;
37645;SDS011;23489;49.600;6.138;2023-03-21T16:28:49;5.50;;;3.20;;
37645;SDS011;23489;49.600;6.138;2023-03-21T16:31:20;4.57;;;3.20;;
37645;SDS011;23489;49.600;6.138;2023-03-21T16:33:48;6.70;;;3.20;;
37645;SDS011;23489;49.600;6.138;2023-03-21T16:36:15;5.32;;;3.80;;
37645;SDS011;23489;49.600;6.138;2023-03-21T16:38:44;10.98;;;8.43;;
37645;SDS011;23489;49.600;6.138;2023-03-21T16:41:14;9.10;;;6.30;;
37645;SDS011;23489;49.600;6.138;2023-03-21T16:43:41;8.30;;;3.78;;
37645;SDS011;23489;49.600;6.138;2023-03-21T16:46:14;4.70;;;3.00;;
37645;SDS011;23489;49.600;6.138;2023-03-21T16:48:41;4.90;;;3.67;;
37645;SDS011;23489;49.600;6.138;2023-03-21T16:51:12;7.38;;;3.92;;
37645;SDS011;23489;49.600;6.138;2023-03-21T16:53:42;4.40;;;2.38;;
37645;SDS011;23489;49.600;6.138;2023-03-21T16:56:11;5.50;;;3.05;;
37645;SDS011;23489;49.600;6.138;2023-03-21T16:58:43;5.65;;;2.90;;
37645;SDS011;23489;49.600;6.138;2023-03-21T17:01:18;3.50;;;2.75;;
37645;SDS011;23489;49.600;6.138;2023-03-21T17:03:45;5.15;;;2.67;;
37645;SDS011;23489;49.600;6.138;2023-03-21T17:06:12;5.72;;;2.60;;